Погода Центарна неделю

Скопье, Македония

16 - 22 июня
  • 16июня
    Сегодня
    +16°
    +33°
    Ясно и безоблачно
    ВремяПогодаТемператураВлажностьДавлениеВетер, м/сВероятность осадков
    02:00Ясно и безоблачно+17°C61 %737 мм1.0 м/с2 %
    05:00Небольшая облачность+15°C60 %737 мм0.9 м/с2 %
    08:00Облачно с прояснениями+22°C54 %738 мм0.2 м/с2 %
    11:00Ясно и безоблачно+28°C34 %738 мм0.0 м/с2 %
    14:00Ясно и безоблачно+32°C30 %737 мм1.0 м/с2 %
    17:00Ясно и безоблачно+32°C27 %736 мм1.4 м/с2 %
    20:00Ясно и безоблачно+29°C36 %736 мм1.6 м/с2 %
    23:00Ясно и безоблачно+22°C49 %737 мм1.8 м/с2 %
  • 17июня
    Понедельник
    +17°
    +33°
    Небольшая облачность
    ВремяПогодаТемператураВлажностьДавлениеВетер, м/сВероятность осадков
    02:00Ясно и безоблачно+19°C64 %738 мм0.8 м/с2 %
    05:00Облачно с прояснениями+17°C61 %739 мм0.7 м/с2 %
    08:00Небольшая облачность+23°C48 %740 мм0.3 м/с2 %
    11:00Небольшая облачность+30°C33 %740 мм0.0 м/с3 %
    14:00Небольшая облачность+33°C27 %739 мм1.9 м/с5 %
    17:00Ясно и безоблачно+34°C26 %739 мм2.4 м/с5 %
    20:00Практически безоблачно+29°C40 %739 мм2.0 м/с2 %
    23:00Ясно и безоблачно+23°C56 %740 мм1.8 м/с2 %
  • 18июня
    Вторник
    +18°
    +34°
    Практически безоблачно
    ВремяПогодаТемператураВлажностьДавлениеВетер, м/сВероятность осадков
    02:00Ясно и безоблачно+20°C69 %741 мм0.8 м/с2 %
    05:00Ясно и безоблачно+18°C73 %741 мм1.0 м/с2 %
    08:00Ясно и безоблачно+24°C49 %742 мм0.4 м/с2 %
    11:00Ясно и безоблачно+31°C38 %742 мм0.2 м/с2 %
    14:00Практически безоблачно+34°C27 %742 мм1.5 м/с4 %
    17:00Практически безоблачно+35°C27 %741 мм2.0 м/с9 %
    20:00Ясно и безоблачно+30°C43 %741 мм2.2 м/с4 %
    23:00Ясно и безоблачно+24°C52 %741 мм1.5 м/с2 %
  • 19июня
    Среда
    +17°
    +36°
    Практически безоблачно
    ВремяПогодаТемператураВлажностьДавлениеВетер, м/сВероятность осадков
    02:00Ясно и безоблачно+21°C59 %742 мм0.6 м/с2 %
    05:00Ясно и безоблачно+19°C57 %742 мм0.8 м/с2 %
    08:00Ясно и безоблачно+25°C47 %743 мм0.5 м/с2 %
    11:00Ясно и безоблачно+32°C33 %743 мм0.2 м/с2 %
    14:00Практически безоблачно+36°C25 %742 мм1.8 м/с2 %
    17:00Практически безоблачно+36°C23 %740 мм2.6 м/с2 %
    20:00Ясно и безоблачно+31°C35 %740 мм2.0 м/с2 %
    23:00Ясно и безоблачно+24°C38 %741 мм1.7 м/с2 %
Мы используем cookies
Соглашаюсь